sensor_id;sensor_type;location;lat;lon;timestamp;P1;durP1;ratioP1;P2;durP2;ratioP2
21758;SDS011;11041;50.854;20.580;2022-11-03T00:02:05;23.98;;;14.98;;
21758;SDS011;11041;50.854;20.580;2022-11-03T00:04:32;30.02;;;15.65;;
21758;SDS011;11041;50.854;20.580;2022-11-03T00:06:58;25.05;;;14.07;;
21758;SDS011;11041;50.854;20.580;2022-11-03T00:09:25;22.38;;;13.07;;
21758;SDS011;11041;50.854;20.580;2022-11-03T00:11:54;23.60;;;13.60;;
21758;SDS011;11041;50.854;20.580;2022-11-03T00:14:20;21.60;;;12.57;;
21758;SDS011;11041;50.854;20.580;2022-11-03T00:16:47;23.25;;;14.00;;
21758;SDS011;11041;50.854;20.580;2022-11-03T00:19:14;22.23;;;13.27;;
21758;SDS011;11041;50.854;20.580;2022-11-03T00:21:41;26.42;;;14.73;;
21758;SDS011;11041;50.854;20.580;2022-11-03T00:24:09;25.10;;;14.52;;
21758;SDS011;11041;50.854;20.580;2022-11-03T00:26:36;25.67;;;14.88;;
21758;SDS011;11041;50.854;20.580;2022-11-03T00:29:10;31.00;;;13.73;;
21758;SDS011;11041;50.854;20.580;2022-11-03T00:31:40;29.95;;;15.02;;
21758;SDS011;11041;50.854;20.580;2022-11-03T00:34:09;21.90;;;13.43;;
21758;SDS011;11041;50.854;20.580;2022-11-03T00:36:37;25.13;;;15.85;;
21758;SDS011;11041;50.854;20.580;2022-11-03T00:39:06;26.73;;;14.75;;
21758;SDS011;11041;50.854;20.580;2022-11-03T00:41:34;28.65;;;14.95;;
21758;SDS011;11041;50.854;20.580;2022-11-03T00:44:01;23.52;;;15.15;;
21758;SDS011;11041;50.854;20.580;2022-11-03T00:46:27;28.00;;;14.48;;
21758;SDS011;11041;50.854;20.580;2022-11-03T00:48:55;23.02;;;14.43;;
21758;SDS011;11041;50.854;20.580;2022-11-03T00:51:23;28.23;;;14.05;;
21758;SDS011;11041;50.854;20.580;2022-11-03T00:53:55;27.27;;;13.85;;
21758;SDS011;11041;50.854;20.580;2022-11-03T00:56:45;22.45;;;12.88;;
21758;SDS011;11041;50.854;20.580;2022-11-03T00:59:11;29.08;;;14.02;;
21758;SDS011;11041;50.854;20.580;2022-11-03T01:01:39;20.92;;;12.30;;
21758;SDS011;11041;50.854;20.580;2022-11-03T01:04:09;25.25;;;12.95;;
21758;SDS011;11041;50.854;20.580;2022-11-03T01:06:55;19.02;;;11.82;;
21758;SDS011;11041;50.854;20.580;2022-11-03T01:09:26;21.77;;;11.55;;
21758;SDS011;11041;50.854;20.580;2022-11-03T01:12:07;19.10;;;12.65;;
21758;SDS011;11041;50.854;20.580;2022-11-03T01:14:47;23.55;;;13.10;;
21758;SDS011;11041;50.854;20.580;2022-11-03T01:17:21;20.98;;;12.77;;
21758;SDS011;11041;50.854;20.580;2022-11-03T01:19:50;19.95;;;11.85;;
21758;SDS011;11041;50.854;20.580;2022-11-03T01:22:18;19.15;;;12.25;;
21758;SDS011;11041;50.854;20.580;2022-11-03T01:24:46;21.27;;;11.32;;
21758;SDS011;11041;50.854;20.580;2022-11-03T01:27:14;19.00;;;11.60;;
21758;SDS011;11041;50.854;20.580;2022-11-03T01:29:44;22.00;;;11.35;;
21758;SDS011;11041;50.854;20.580;2022-11-03T01:32:11;24.23;;;12.88;;
21758;SDS011;11041;50.854;20.580;2022-11-03T01:34:38;23.38;;;11.77;;
21758;SDS011;11041;50.854;20.580;2022-11-03T01:37:04;18.38;;;10.57;;
21758;SDS011;11041;50.854;20.580;2022-11-03T01:39:31;20.13;;;11.85;;
21758;SDS011;11041;50.854;20.580;2022-11-03T01:41:58;20.52;;;11.57;;
21758;SDS011;11041;50.854;20.580;2022-11-03T01:44:32;16.90;;;11.30;;
21758;SDS011;11041;50.854;20.580;2022-11-03T01:49:57;20.23;;;12.18;;
21758;SDS011;11041;50.854;20.580;2022-11-03T01:52:34;20.67;;;11.48;;
21758;SDS011;11041;50.854;20.580;2022-11-03T01:55:27;22.25;;;10.90;;
21758;SDS011;11041;50.854;20.580;2022-11-03T02:00:30;20.30;;;10.82;;
21758;SDS011;11041;50.854;20.580;2022-11-03T02:02:57;23.83;;;11.88;;
21758;SDS011;11041;50.854;20.580;2022-11-03T02:05:25;21.02;;;10.88;;
21758;SDS011;11041;50.854;20.580;2022-11-03T02:07:56;21.52;;;12.82;;
21758;SDS011;11041;50.854;20.580;2022-11-03T02:10:33;21.08;;;12.10;;
21758;SDS011;11041;50.854;20.580;2022-11-03T02:13:06;19.42;;;11.00;;
21758;SDS011;11041;50.854;20.580;2022-11-03T02:15:42;19.75;;;11.27;;
21758;SDS011;11041;50.854;20.580;2022-11-03T02:18:11;21.63;;;10.73;;
21758;SDS011;11041;50.854;20.580;2022-11-03T02:20:40;15.20;;;9.80;;
21758;SDS011;11041;50.854;20.580;2022-11-03T02:23:25;15.45;;;10.60;;
21758;SDS011;11041;50.854;20.580;2022-11-03T02:26:29;15.73;;;9.18;;
21758;SDS011;11041;50.854;20.580;2022-11-03T02:28:55;17.08;;;9.68;;
21758;SDS011;11041;50.854;20.580;2022-11-03T02:31:26;15.75;;;9.95;;
21758;SDS011;11041;50.854;20.580;2022-11-03T02:34:11;16.80;;;10.32;;
21758;SDS011;11041;50.854;20.580;2022-11-03T02:37:01;17.92;;;10.45;;
21758;SDS011;11041;50.854;20.580;2022-11-03T02:39:43;17.38;;;10.18;;
21758;SDS011;11041;50.854;20.580;2022-11-03T02:42:26;19.08;;;9.65;;
21758;SDS011;11041;50.854;20.580;2022-11-03T02:44:56;17.42;;;10.38;;
21758;SDS011;11041;50.854;20.580;2022-11-03T02:47:30;18.90;;;10.57;;
21758;SDS011;11041;50.854;20.580;2022-11-03T02:49:59;18.02;;;11.35;;
21758;SDS011;11041;50.854;20.580;2022-11-03T02:52:33;17.77;;;10.35;;
21758;SDS011;11041;50.854;20.580;2022-11-03T03:00:50;15.82;;;10.60;;
21758;SDS011;11041;50.854;20.580;2022-11-03T03:03:41;20.70;;;11.50;;
21758;SDS011;11041;50.854;20.580;2022-11-03T03:09:20;15.52;;;10.93;;
21758;SDS011;11041;50.854;20.580;2022-11-03T03:11:55;18.85;;;10.13;;
21758;SDS011;11041;50.854;20.580;2022-11-03T03:14:27;17.65;;;10.70;;
21758;SDS011;11041;50.854;20.580;2022-11-03T03:17:04;19.73;;;10.52;;
21758;SDS011;11041;50.854;20.580;2022-11-03T03:19:52;18.42;;;11.23;;
21758;SDS011;11041;50.854;20.580;2022-11-03T03:22:32;15.52;;;9.40;;
21758;SDS011;11041;50.854;20.580;2022-11-03T03:25:33;16.25;;;9.80;;
21758;SDS011;11041;50.854;20.580;2022-11-03T03:28:12;20.00;;;9.70;;
21758;SDS011;11041;50.854;20.580;2022-11-03T03:30:48;19.73;;;9.23;;
21758;SDS011;11041;50.854;20.580;2022-11-03T03:33:19;19.25;;;10.05;;
21758;SDS011;11041;50.854;20.580;2022-11-03T03:35:48;16.15;;;10.10;;
21758;SDS011;11041;50.854;20.580;2022-11-03T03:38:22;15.88;;;10.50;;
21758;SDS011;11041;50.854;20.580;2022-11-03T03:40:57;17.05;;;10.43;;
21758;SDS011;11041;50.854;20.580;2022-11-03T03:43:27;21.67;;;11.60;;
21758;SDS011;11041;50.854;20.580;2022-11-03T03:45:59;17.67;;;11.13;;
21758;SDS011;11041;50.854;20.580;2022-11-03T03:48:32;17.73;;;9.88;;
21758;SDS011;11041;50.854;20.580;2022-11-03T03:50:59;21.25;;;10.75;;
21758;SDS011;11041;50.854;20.580;2022-11-03T03:53:28;19.70;;;10.68;;
21758;SDS011;11041;50.854;20.580;2022-11-03T03:55:55;21.40;;;12.50;;
21758;SDS011;11041;50.854;20.580;2022-11-03T03:58:24;19.50;;;12.15;;
21758;SDS011;11041;50.854;20.580;2022-11-03T04:00:51;22.48;;;12.63;;
21758;SDS011;11041;50.854;20.580;2022-11-03T04:03:18;22.63;;;11.13;;
21758;SDS011;11041;50.854;20.580;2022-11-03T04:05:46;16.85;;;10.60;;
21758;SDS011;11041;50.854;20.580;2022-11-03T04:08:14;17.10;;;11.15;;
21758;SDS011;11041;50.854;20.580;2022-11-03T04:10:42;16.10;;;9.88;;
21758;SDS011;11041;50.854;20.580;2022-11-03T04:13:29;14.68;;;9.50;;
21758;SDS011;11041;50.854;20.580;2022-11-03T04:16:15;22.98;;;10.88;;
21758;SDS011;11041;50.854;20.580;2022-11-03T04:19:01;17.30;;;11.32;;
21758;SDS011;11041;50.854;20.580;2022-11-03T04:21:48;19.95;;;10.80;;
21758;SDS011;11041;50.854;20.580;2022-11-03T04:24:33;17.23;;;10.68;;
21758;SDS011;11041;50.854;20.580;2022-11-03T04:27:01;20.92;;;10.73;;
21758;SDS011;11041;50.854;20.580;2022-11-03T04:29:54;19.17;;;11.48;;
21758;SDS011;11041;50.854;20.580;2022-11-03T04:32:46;23.77;;;11.15;;
21758;SDS011;11041;50.854;20.580;2022-11-03T04:35:16;21.95;;;11.50;;
21758;SDS011;11041;50.854;20.580;2022-11-03T04:37:59;16.45;;;10.82;;
21758;SDS011;11041;50.854;20.580;2022-11-03T04:40:44;20.45;;;12.60;;
21758;SDS011;11041;50.854;20.580;2022-11-03T04:43:14;17.17;;;10.75;;
21758;SDS011;11041;50.854;20.580;2022-11-03T04:45:44;20.65;;;11.63;;
21758;SDS011;11041;50.854;20.580;2022-11-03T04:48:26;19.50;;;12.70;;
21758;SDS011;11041;50.854;20.580;2022-11-03T04:50:55;20.80;;;12.02;;
21758;SDS011;11041;50.854;20.580;2022-11-03T04:53:27;20.50;;;11.23;;
21758;SDS011;11041;50.854;20.580;2022-11-03T04:55:57;20.58;;;11.65;;
21758;SDS011;11041;50.854;20.580;2022-11-03T04:58:25;19.60;;;12.60;;
21758;SDS011;11041;50.854;20.580;2022-11-03T05:01:00;21.35;;;13.07;;
21758;SDS011;11041;50.854;20.580;2022-11-03T05:03:30;21.30;;;11.80;;
21758;SDS011;11041;50.854;20.580;2022-11-03T05:06:17;22.10;;;12.45;;
21758;SDS011;11041;50.854;20.580;2022-11-03T05:08:48;19.83;;;11.65;;
21758;SDS011;11041;50.854;20.580;2022-11-03T05:11:34;22.90;;;12.07;;
21758;SDS011;11041;50.854;20.580;2022-11-03T05:14:15;20.60;;;12.30;;
21758;SDS011;11041;50.854;20.580;2022-11-03T05:16:47;21.95;;;12.52;;
21758;SDS011;11041;50.854;20.580;2022-11-03T05:19:23;22.45;;;13.07;;
21758;SDS011;11041;50.854;20.580;2022-11-03T05:21:59;20.63;;;11.90;;
21758;SDS011;11041;50.854;20.580;2022-11-03T05:24:29;25.20;;;12.55;;
21758;SDS011;11041;50.854;20.580;2022-11-03T05:26:58;20.80;;;11.63;;
21758;SDS011;11041;50.854;20.580;2022-11-03T05:29:25;19.77;;;12.18;;
21758;SDS011;11041;50.854;20.580;2022-11-03T05:32:02;18.95;;;11.15;;
21758;SDS011;11041;50.854;20.580;2022-11-03T05:34:42;18.13;;;12.07;;
21758;SDS011;11041;50.854;20.580;2022-11-03T05:39:56;21.73;;;12.45;;
21758;SDS011;11041;50.854;20.580;2022-11-03T05:42:46;24.65;;;12.05;;
21758;SDS011;11041;50.854;20.580;2022-11-03T05:45:32;21.10;;;12.07;;
21758;SDS011;11041;50.854;20.580;2022-11-03T05:48:09;42.63;;;12.27;;
21758;SDS011;11041;50.854;20.580;2022-11-03T05:50:44;37.95;;;13.68;;
21758;SDS011;11041;50.854;20.580;2022-11-03T05:55:54;47.88;;;15.25;;
21758;SDS011;11041;50.854;20.580;2022-11-03T05:58:36;80.85;;;15.95;;
21758;SDS011;11041;50.854;20.580;2022-11-03T06:01:15;58.08;;;14.73;;
21758;SDS011;11041;50.854;20.580;2022-11-03T06:03:48;55.67;;;15.38;;
21758;SDS011;11041;50.854;20.580;2022-11-03T06:06:28;38.92;;;13.10;;
21758;SDS011;11041;50.854;20.580;2022-11-03T06:09:01;26.10;;;11.75;;
21758;SDS011;11041;50.854;20.580;2022-11-03T06:11:38;19.95;;;11.13;;
21758;SDS011;11041;50.854;20.580;2022-11-03T06:16:55;31.83;;;13.63;;
21758;SDS011;11041;50.854;20.580;2022-11-03T06:22:46;24.48;;;10.88;;
21758;SDS011;11041;50.854;20.580;2022-11-03T06:25:17;18.33;;;10.45;;
21758;SDS011;11041;50.854;20.580;2022-11-03T06:27:53;23.90;;;11.45;;
21758;SDS011;11041;50.854;20.580;2022-11-03T06:30:31;19.85;;;10.63;;
21758;SDS011;11041;50.854;20.580;2022-11-03T06:33:12;22.45;;;10.85;;
21758;SDS011;11041;50.854;20.580;2022-11-03T06:35:49;30.63;;;10.93;;
21758;SDS011;11041;50.854;20.580;2022-11-03T06:38:20;26.25;;;11.85;;
21758;SDS011;11041;50.854;20.580;2022-11-03T06:40:51;38.00;;;12.73;;
21758;SDS011;11041;50.854;20.580;2022-11-03T06:43:21;31.77;;;12.90;;
21758;SDS011;11041;50.854;20.580;2022-11-03T06:46:05;31.55;;;12.05;;
21758;SDS011;11041;50.854;20.580;2022-11-03T06:48:45;30.88;;;12.73;;
21758;SDS011;11041;50.854;20.580;2022-11-03T06:51:17;30.25;;;12.20;;
21758;SDS011;11041;50.854;20.580;2022-11-03T06:53:50;25.98;;;12.25;;
21758;SDS011;11041;50.854;20.580;2022-11-03T06:56:27;31.95;;;12.68;;
21758;SDS011;11041;50.854;20.580;2022-11-03T06:58:59;28.98;;;12.07;;
21758;SDS011;11041;50.854;20.580;2022-11-03T07:01:30;30.27;;;11.73;;
21758;SDS011;11041;50.854;20.580;2022-11-03T07:04:03;26.45;;;12.93;;
21758;SDS011;11041;50.854;20.580;2022-11-03T07:06:41;27.55;;;13.80;;
21758;SDS011;11041;50.854;20.580;2022-11-03T07:09:14;21.45;;;11.75;;
21758;SDS011;11041;50.854;20.580;2022-11-03T07:11:51;21.15;;;11.90;;
21758;SDS011;11041;50.854;20.580;2022-11-03T07:14:25;26.80;;;13.60;;
21758;SDS011;11041;50.854;20.580;2022-11-03T07:16:57;37.60;;;15.93;;
21758;SDS011;11041;50.854;20.580;2022-11-03T07:19:37;36.85;;;18.92;;
21758;SDS011;11041;50.854;20.580;2022-11-03T07:22:13;58.10;;;21.40;;
21758;SDS011;11041;50.854;20.580;2022-11-03T07:24:54;56.05;;;24.15;;
21758;SDS011;11041;50.854;20.580;2022-11-03T07:27:47;83.10;;;25.13;;
21758;SDS011;11041;50.854;20.580;2022-11-03T07:33:01;92.70;;;30.13;;
21758;SDS011;11041;50.854;20.580;2022-11-03T07:35:45;65.25;;;27.70;;
21758;SDS011;11041;50.854;20.580;2022-11-03T07:38:17;71.38;;;29.38;;
21758;SDS011;11041;50.854;20.580;2022-11-03T07:40:45;53.55;;;28.00;;
21758;SDS011;11041;50.854;20.580;2022-11-03T07:43:19;55.60;;;27.20;;
21758;SDS011;11041;50.854;20.580;2022-11-03T07:45:57;48.60;;;27.50;;
21758;SDS011;11041;50.854;20.580;2022-11-03T07:48:32;54.58;;;29.05;;
21758;SDS011;11041;50.854;20.580;2022-11-03T07:51:32;61.60;;;31.00;;
21758;SDS011;11041;50.854;20.580;2022-11-03T07:54:11;59.95;;;29.98;;
21758;SDS011;11041;50.854;20.580;2022-11-03T07:56:55;55.40;;;29.55;;
21758;SDS011;11041;50.854;20.580;2022-11-03T07:59:40;57.53;;;30.10;;
21758;SDS011;11041;50.854;20.580;2022-11-03T08:04:59;59.83;;;29.58;;
21758;SDS011;11041;50.854;20.580;2022-11-03T08:07:26;51.40;;;27.88;;
21758;SDS011;11041;50.854;20.580;2022-11-03T08:09:53;53.50;;;29.40;;
21758;SDS011;11041;50.854;20.580;2022-11-03T08:12:19;50.50;;;27.15;;
21758;SDS011;11041;50.854;20.580;2022-11-03T08:14:46;54.70;;;27.40;;
21758;SDS011;11041;50.854;20.580;2022-11-03T08:17:13;56.03;;;28.25;;
21758;SDS011;11041;50.854;20.580;2022-11-03T08:19:40;82.32;;;47.20;;
21758;SDS011;11041;50.854;20.580;2022-11-03T08:22:07;52.58;;;29.10;;
21758;SDS011;11041;50.854;20.580;2022-11-03T08:24:33;52.72;;;30.10;;
21758;SDS011;11041;50.854;20.580;2022-11-03T08:27:00;50.97;;;31.60;;
21758;SDS011;11041;50.854;20.580;2022-11-03T08:29:28;56.63;;;33.38;;
21758;SDS011;11041;50.854;20.580;2022-11-03T08:31:54;55.10;;;29.48;;
21758;SDS011;11041;50.854;20.580;2022-11-03T08:34:21;52.55;;;33.80;;
21758;SDS011;11041;50.854;20.580;2022-11-03T08:36:48;46.08;;;28.45;;
21758;SDS011;11041;50.854;20.580;2022-11-03T08:39:14;44.30;;;27.52;;
21758;SDS011;11041;50.854;20.580;2022-11-03T08:41:41;40.03;;;25.27;;
21758;SDS011;11041;50.854;20.580;2022-11-03T08:44:08;42.90;;;24.65;;
21758;SDS011;11041;50.854;20.580;2022-11-03T08:46:34;42.35;;;25.10;;
21758;SDS011;11041;50.854;20.580;2022-11-03T08:49:01;40.10;;;24.75;;
21758;SDS011;11041;50.854;20.580;2022-11-03T08:51:27;46.45;;;26.35;;
21758;SDS011;11041;50.854;20.580;2022-11-03T08:53:54;38.35;;;24.52;;
21758;SDS011;11041;50.854;20.580;2022-11-03T08:56:20;42.15;;;24.50;;
21758;SDS011;11041;50.854;20.580;2022-11-03T08:58:47;38.50;;;23.77;;
21758;SDS011;11041;50.854;20.580;2022-11-03T09:01:14;39.25;;;24.73;;
21758;SDS011;11041;50.854;20.580;2022-11-03T09:03:40;41.25;;;24.25;;
21758;SDS011;11041;50.854;20.580;2022-11-03T09:06:07;40.38;;;25.05;;
21758;SDS011;11041;50.854;20.580;2022-11-03T09:08:34;43.30;;;26.92;;
21758;SDS011;11041;50.854;20.580;2022-11-03T09:11:00;38.00;;;23.55;;
21758;SDS011;11041;50.854;20.580;2022-11-03T09:13:26;36.05;;;22.35;;
21758;SDS011;11041;50.854;20.580;2022-11-03T09:15:53;37.55;;;23.88;;
21758;SDS011;11041;50.854;20.580;2022-11-03T09:18:19;38.65;;;24.38;;
21758;SDS011;11041;50.854;20.580;2022-11-03T09:20:47;39.83;;;24.52;;
21758;SDS011;11041;50.854;20.580;2022-11-03T09:23:13;45.90;;;28.73;;
21758;SDS011;11041;50.854;20.580;2022-11-03T09:25:40;39.13;;;26.88;;
21758;SDS011;11041;50.854;20.580;2022-11-03T09:28:07;39.78;;;24.98;;
21758;SDS011;11041;50.854;20.580;2022-11-03T09:30:33;40.13;;;24.98;;
21758;SDS011;11041;50.854;20.580;2022-11-03T09:33:00;39.28;;;25.10;;
21758;SDS011;11041;50.854;20.580;2022-11-03T09:35:26;38.47;;;26.10;;
21758;SDS011;11041;50.854;20.580;2022-11-03T09:37:53;40.85;;;25.23;;
21758;SDS011;11041;50.854;20.580;2022-11-03T09:40:20;47.00;;;27.25;;
21758;SDS011;11041;50.854;20.580;2022-11-03T09:42:47;38.13;;;24.95;;
21758;SDS011;11041;50.854;20.580;2022-11-03T09:45:14;43.03;;;26.92;;
21758;SDS011;11041;50.854;20.580;2022-11-03T09:47:41;43.03;;;28.50;;
21758;SDS011;11041;50.854;20.580;2022-11-03T09:50:15;44.38;;;29.02;;
21758;SDS011;11041;50.854;20.580;2022-11-03T09:52:45;48.00;;;29.75;;
21758;SDS011;11041;50.854;20.580;2022-11-03T09:55:14;48.17;;;30.63;;
21758;SDS011;11041;50.854;20.580;2022-11-03T09:57:46;43.22;;;28.85;;
21758;SDS011;11041;50.854;20.580;2022-11-03T10:00:14;48.80;;;30.52;;
21758;SDS011;11041;50.854;20.580;2022-11-03T10:02:45;46.83;;;28.25;;
21758;SDS011;11041;50.854;20.580;2022-11-03T10:05:15;47.35;;;29.50;;
21758;SDS011;11041;50.854;20.580;2022-11-03T10:07:55;49.90;;;32.63;;
21758;SDS011;11041;50.854;20.580;2022-11-03T10:10:27;47.85;;;27.90;;
21758;SDS011;11041;50.854;20.580;2022-11-03T10:12:55;43.03;;;27.00;;
21758;SDS011;11041;50.854;20.580;2022-11-03T10:15:22;42.30;;;27.90;;
21758;SDS011;11041;50.854;20.580;2022-11-03T10:17:51;40.63;;;25.67;;
21758;SDS011;11041;50.854;20.580;2022-11-03T10:20:21;39.83;;;26.05;;
21758;SDS011;11041;50.854;20.580;2022-11-03T10:22:52;41.08;;;26.60;;
21758;SDS011;11041;50.854;20.580;2022-11-03T10:25:32;42.78;;;24.08;;
21758;SDS011;11041;50.854;20.580;2022-11-03T10:38:43;32.53;;;22.58;;
21758;SDS011;11041;50.854;20.580;2022-11-03T10:44:21;17.38;;;9.35;;
21758;SDS011;11041;50.854;20.580;2022-11-03T10:46:57;26.55;;;9.70;;
21758;SDS011;11041;50.854;20.580;2022-11-03T10:49:27;12.35;;;7.78;;
21758;SDS011;11041;50.854;20.580;2022-11-03T10:54:45;13.02;;;7.70;;
21758;SDS011;11041;50.854;20.580;2022-11-03T10:57:13;12.57;;;7.30;;
21758;SDS011;11041;50.854;20.580;2022-11-03T10:59:41;15.07;;;8.18;;
21758;SDS011;11041;50.854;20.580;2022-11-03T11:02:21;20.83;;;8.35;;
21758;SDS011;11041;50.854;20.580;2022-11-03T11:04:57;16.35;;;7.50;;
21758;SDS011;11041;50.854;20.580;2022-11-03T11:07:39;16.05;;;6.88;;
21758;SDS011;11041;50.854;20.580;2022-11-03T11:15:34;11.45;;;6.93;;
21758;SDS011;11041;50.854;20.580;2022-11-03T11:18:04;10.55;;;6.63;;
21758;SDS011;11041;50.854;20.580;2022-11-03T11:20:35;11.85;;;5.82;;
21758;SDS011;11041;50.854;20.580;2022-11-03T11:31:38;12.48;;;5.47;;
21758;SDS011;11041;50.854;20.580;2022-11-03T11:36:39;8.82;;;4.30;;
21758;SDS011;11041;50.854;20.580;2022-11-03T11:44:43;14.25;;;5.68;;
21758;SDS011;11041;50.854;20.580;2022-11-03T11:58:13;7.55;;;3.97;;
21758;SDS011;11041;50.854;20.580;2022-11-03T12:01:03;10.60;;;3.83;;
21758;SDS011;11041;50.854;20.580;2022-11-03T12:03:56;12.43;;;4.60;;
21758;SDS011;11041;50.854;20.580;2022-11-03T12:06:31;10.52;;;4.50;;
21758;SDS011;11041;50.854;20.580;2022-11-03T12:11:57;7.75;;;3.50;;
21758;SDS011;11041;50.854;20.580;2022-11-03T12:19:43;9.13;;;4.90;;
21758;SDS011;11041;50.854;20.580;2022-11-03T12:25:04;6.40;;;2.85;;
21758;SDS011;11041;50.854;20.580;2022-11-03T12:27:59;5.38;;;2.70;;
21758;SDS011;11041;50.854;20.580;2022-11-03T12:30:26;6.97;;;2.95;;
21758;SDS011;11041;50.854;20.580;2022-11-03T12:32:52;9.43;;;2.83;;
21758;SDS011;11041;50.854;20.580;2022-11-03T12:35:19;9.23;;;4.47;;
21758;SDS011;11041;50.854;20.580;2022-11-03T12:37:45;7.32;;;2.72;;
21758;SDS011;11041;50.854;20.580;2022-11-03T12:40:12;8.48;;;2.40;;
21758;SDS011;11041;50.854;20.580;2022-11-03T12:42:39;5.28;;;2.80;;
21758;SDS011;11041;50.854;20.580;2022-11-03T12:45:06;4.68;;;2.25;;
21758;SDS011;11041;50.854;20.580;2022-11-03T12:47:34;7.60;;;3.22;;
21758;SDS011;11041;50.854;20.580;2022-11-03T12:50:01;4.30;;;2.50;;
21758;SDS011;11041;50.854;20.580;2022-11-03T12:52:28;8.20;;;2.13;;
21758;SDS011;11041;50.854;20.580;2022-11-03T12:54:55;7.15;;;2.17;;
21758;SDS011;11041;50.854;20.580;2022-11-03T12:57:21;7.88;;;3.08;;
21758;SDS011;11041;50.854;20.580;2022-11-03T12:59:48;5.35;;;3.15;;
21758;SDS011;11041;50.854;20.580;2022-11-03T13:02:16;8.10;;;2.40;;
21758;SDS011;11041;50.854;20.580;2022-11-03T13:04:43;12.63;;;7.65;;
21758;SDS011;11041;50.854;20.580;2022-11-03T13:07:10;8.43;;;4.95;;
21758;SDS011;11041;50.854;20.580;2022-11-03T13:09:36;5.55;;;2.85;;
21758;SDS011;11041;50.854;20.580;2022-11-03T13:12:03;6.72;;;2.85;;
21758;SDS011;11041;50.854;20.580;2022-11-03T13:14:49;7.53;;;3.40;;
21758;SDS011;11041;50.854;20.580;2022-11-03T13:17:15;6.75;;;2.90;;
21758;SDS011;11041;50.854;20.580;2022-11-03T13:19:42;8.43;;;3.25;;
21758;SDS011;11041;50.854;20.580;2022-11-03T13:22:08;5.85;;;2.53;;
21758;SDS011;11041;50.854;20.580;2022-11-03T13:24:35;10.23;;;2.67;;
21758;SDS011;11041;50.854;20.580;2022-11-03T13:27:02;7.63;;;3.55;;
21758;SDS011;11041;50.854;20.580;2022-11-03T13:29:29;5.82;;;2.92;;
21758;SDS011;11041;50.854;20.580;2022-11-03T13:31:56;6.00;;;2.95;;
21758;SDS011;11041;50.854;20.580;2022-11-03T13:34:22;9.85;;;2.92;;
21758;SDS011;11041;50.854;20.580;2022-11-03T13:36:48;11.38;;;3.35;;
21758;SDS011;11041;50.854;20.580;2022-11-03T13:39:15;7.47;;;2.67;;
21758;SDS011;11041;50.854;20.580;2022-11-03T13:41:42;8.52;;;3.67;;
21758;SDS011;11041;50.854;20.580;2022-11-03T13:44:08;9.68;;;4.13;;
21758;SDS011;11041;50.854;20.580;2022-11-03T13:46:35;9.70;;;3.25;;
21758;SDS011;11041;50.854;20.580;2022-11-03T13:49:02;5.20;;;2.97;;
21758;SDS011;11041;50.854;20.580;2022-11-03T13:51:28;3.65;;;2.40;;
21758;SDS011;11041;50.854;20.580;2022-11-03T13:53:55;7.15;;;2.75;;
21758;SDS011;11041;50.854;20.580;2022-11-03T13:56:21;4.75;;;2.47;;
21758;SDS011;11041;50.854;20.580;2022-11-03T13:58:48;4.70;;;2.75;;
21758;SDS011;11041;50.854;20.580;2022-11-03T14:01:15;17.33;;;12.45;;
21758;SDS011;11041;50.854;20.580;2022-11-03T14:03:42;13.60;;;7.80;;
21758;SDS011;11041;50.854;20.580;2022-11-03T14:06:08;8.40;;;4.35;;
21758;SDS011;11041;50.854;20.580;2022-11-03T14:08:36;6.80;;;3.47;;
21758;SDS011;11041;50.854;20.580;2022-11-03T14:11:03;8.07;;;4.05;;
21758;SDS011;11041;50.854;20.580;2022-11-03T14:13:50;6.95;;;3.90;;
21758;SDS011;11041;50.854;20.580;2022-11-03T14:16:16;6.43;;;4.10;;
21758;SDS011;11041;50.854;20.580;2022-11-03T14:18:43;8.68;;;6.00;;
21758;SDS011;11041;50.854;20.580;2022-11-03T14:21:10;15.13;;;6.93;;
21758;SDS011;11041;50.854;20.580;2022-11-03T14:23:36;8.65;;;5.20;;
21758;SDS011;11041;50.854;20.580;2022-11-03T14:26:03;10.02;;;4.07;;
21758;SDS011;11041;50.854;20.580;2022-11-03T14:28:29;7.05;;;3.92;;
21758;SDS011;11041;50.854;20.580;2022-11-03T14:30:56;10.15;;;3.40;;
21758;SDS011;11041;50.854;20.580;2022-11-03T14:33:24;6.32;;;3.03;;
21758;SDS011;11041;50.854;20.580;2022-11-03T14:35:51;6.68;;;2.92;;
21758;SDS011;11041;50.854;20.580;2022-11-03T14:38:18;7.97;;;2.60;;
21758;SDS011;11041;50.854;20.580;2022-11-03T14:40:45;7.28;;;2.83;;
21758;SDS011;11041;50.854;20.580;2022-11-03T14:43:29;3.90;;;2.88;;
21758;SDS011;11041;50.854;20.580;2022-11-03T14:45:56;7.30;;;2.80;;
21758;SDS011;11041;50.854;20.580;2022-11-03T14:48:22;7.13;;;2.60;;
21758;SDS011;11041;50.854;20.580;2022-11-03T14:50:49;5.82;;;2.67;;
21758;SDS011;11041;50.854;20.580;2022-11-03T14:53:15;6.43;;;2.70;;
21758;SDS011;11041;50.854;20.580;2022-11-03T14:55:42;7.65;;;2.88;;
21758;SDS011;11041;50.854;20.580;2022-11-03T14:58:09;6.03;;;2.50;;
21758;SDS011;11041;50.854;20.580;2022-11-03T15:00:35;6.00;;;2.90;;
21758;SDS011;11041;50.854;20.580;2022-11-03T15:03:02;6.53;;;2.80;;
21758;SDS011;11041;50.854;20.580;2022-11-03T15:05:29;7.28;;;3.03;;
21758;SDS011;11041;50.854;20.580;2022-11-03T15:08:15;9.20;;;3.13;;
21758;SDS011;11041;50.854;20.580;2022-11-03T15:10:43;96.38;;;57.20;;
21758;SDS011;11041;50.854;20.580;2022-11-03T15:13:10;46.97;;;29.05;;
21758;SDS011;11041;50.854;20.580;2022-11-03T15:15:36;36.60;;;24.83;;
21758;SDS011;11041;50.854;20.580;2022-11-03T15:18:06;14.23;;;12.65;;
21758;SDS011;11041;50.854;20.580;2022-11-03T15:20:34;15.52;;;6.85;;
21758;SDS011;11041;50.854;20.580;2022-11-03T15:23:01;9.07;;;4.50;;
21758;SDS011;11041;50.854;20.580;2022-11-03T15:25:30;12.98;;;3.60;;
21758;SDS011;11041;50.854;20.580;2022-11-03T15:27:58;8.15;;;3.33;;
21758;SDS011;11041;50.854;20.580;2022-11-03T15:30:25;7.43;;;3.65;;
21758;SDS011;11041;50.854;20.580;2022-11-03T15:32:52;6.53;;;4.13;;
21758;SDS011;11041;50.854;20.580;2022-11-03T15:35:18;9.95;;;4.15;;
21758;SDS011;11041;50.854;20.580;2022-11-03T15:37:45;8.68;;;4.60;;
21758;SDS011;11041;50.854;20.580;2022-11-03T15:40:13;8.45;;;3.47;;
21758;SDS011;11041;50.854;20.580;2022-11-03T15:42:41;11.65;;;3.78;;
21758;SDS011;11041;50.854;20.580;2022-11-03T15:45:09;8.20;;;3.28;;
21758;SDS011;11041;50.854;20.580;2022-11-03T15:47:39;5.95;;;2.80;;
21758;SDS011;11041;50.854;20.580;2022-11-03T15:50:06;10.35;;;3.42;;
21758;SDS011;11041;50.854;20.580;2022-11-03T15:52:35;5.15;;;3.35;;
21758;SDS011;11041;50.854;20.580;2022-11-03T15:55:03;8.23;;;4.10;;
21758;SDS011;11041;50.854;20.580;2022-11-03T15:57:31;11.57;;;4.40;;
21758;SDS011;11041;50.854;20.580;2022-11-03T15:59:59;8.55;;;3.80;;
21758;SDS011;11041;50.854;20.580;2022-11-03T16:02:26;9.02;;;4.38;;
21758;SDS011;11041;50.854;20.580;2022-11-03T16:04:53;8.45;;;4.80;;
21758;SDS011;11041;50.854;20.580;2022-11-03T16:07:20;8.65;;;4.57;;
21758;SDS011;11041;50.854;20.580;2022-11-03T16:09:47;9.30;;;5.53;;
21758;SDS011;11041;50.854;20.580;2022-11-03T16:12:14;11.73;;;6.53;;
21758;SDS011;11041;50.854;20.580;2022-11-03T16:14:40;15.15;;;6.25;;